Portada
METAR-TAF:

METAR-TAF

Aeropuertos :

Kingston, Jamaica

Aeropuerto Internacional Norman Manley

latitud: 17-56N, longitud: 076-47W, altitud: 3 m

Observación

El informe se hizo hace 17 minutos, a las 22:00 UTC
Viento 20 kt del sureste
Temperatura 28°C
Humedad 74%
Presión 1012 hPa
Visibilidad 10 km o más
Escasas nubes a una altura de 2400 ft

METAR: MKJP 212200Z 13020KT 9999 FEW024 28/23 Q1012

Hora: 17:17 (22:17 UTC)

Pronóstico

El informe se hizo hace 5 horas y 2 minutos, a las 17:15 UTC
Pronóstico válido del 21 a las 18 UTC al 22 a las 18 UTC
Viento 20 kt del sureste
Visibilidad 10 km o más
Nubes dispersas a una altura de 2200 ft
Evolucionando progresivamente
del 22 a las 01 UTC al 22 a las 03 UTC
Viento 7 kt del norte
Evolucionando progresivamente
del 22 a las 15 UTC al 22 a las 17 UTC
Viento 15 kt del sureste

TAF: MKJP 211715Z 2118/2218 14020KT 9999 SCT022 BECMG 2201/2203 01007KT BECMG 2215/2217 14015KT

Observaciones y pronósticos meteorológicos de más de 4000 aeropuertos (mensajes METAR y TAF).

Los puntos amarillos y rojos representan las estaciones disponibles.

Ponga el ratón en el punto deseado para ver el nombre de la estación.

Haga clic para ver las observaciones y los pronósticos meteorológicos.

Para cambiar el mapa : haga clic en los botones verdes con una cruz de color negro para hacer un zoom, en el botón verde con un guión para alejar o en las flechas verdes para mapas adyacentes.


METAR-TAF: